createdAt,value
2023-10-17T00:00:27.761Z,24.74
2023-10-17T00:02:54.241Z,24.87
2023-10-17T00:05:20.681Z,24.96
2023-10-17T00:07:46.945Z,24.82
2023-10-17T00:10:13.356Z,24.75
2023-10-17T00:12:39.777Z,24.91
2023-10-17T00:15:06.157Z,25.08
2023-10-17T00:17:32.562Z,25.10
2023-10-17T00:19:58.936Z,25.21
2023-10-17T00:22:25.534Z,25.19
2023-10-17T00:24:51.631Z,25.26
2023-10-17T00:27:18.113Z,25.15
2023-10-17T00:29:44.561Z,24.31
2023-10-17T00:32:11.004Z,24.27
2023-10-17T00:34:37.392Z,24.34
2023-10-17T00:37:03.712Z,24.45
2023-10-17T00:39:30.130Z,24.79
2023-10-17T00:41:56.617Z,25.08
2023-10-17T00:44:22.970Z,24.92
2023-10-17T00:46:49.250Z,25.12
2023-10-17T00:49:15.535Z,25.32
2023-10-17T00:51:41.878Z,25.64
2023-10-17T00:54:08.240Z,25.86
2023-10-17T00:56:34.559Z,25.99
2023-10-17T00:59:01.112Z,24.90
2023-10-17T01:01:27.522Z,25.61
2023-10-17T01:03:53.845Z,25.92
2023-10-17T01:06:20.288Z,26.04
2023-10-17T01:08:46.454Z,26.08
2023-10-17T01:11:12.939Z,24.85
2023-10-17T01:13:39.269Z,24.35
2023-10-17T01:16:05.912Z,24.46
2023-10-17T01:18:32.237Z,24.41
2023-10-17T01:20:58.612Z,24.52
2023-10-17T01:23:24.909Z,24.62
2023-10-17T01:25:51.213Z,24.69
2023-10-17T01:28:17.849Z,24.75
2023-10-17T01:30:44.273Z,24.66
2023-10-17T01:33:10.733Z,24.86
2023-10-17T01:35:36.992Z,24.99
2023-10-17T01:38:03.587Z,25.00
2023-10-17T01:40:30.010Z,24.64
2023-10-17T01:42:56.210Z,24.12
2023-10-17T01:45:22.716Z,24.07
2023-10-17T01:47:48.941Z,24.07
2023-10-17T01:50:15.320Z,24.32
2023-10-17T01:52:41.631Z,24.00
2023-10-17T01:55:08.119Z,23.99
2023-10-17T01:57:34.441Z,23.99
2023-10-17T02:00:00.754Z,24.00
2023-10-17T02:02:27.098Z,24.01
2023-10-17T02:04:53.442Z,24.09
2023-10-17T02:07:19.721Z,24.06
2023-10-17T02:09:46.232Z,24.01
2023-10-17T02:12:12.689Z,24.39
2023-10-17T02:14:39.152Z,24.44
2023-10-17T02:17:05.380Z,24.37
2023-10-17T02:19:31.790Z,24.75
2023-10-17T02:21:58.127Z,25.00
2023-10-17T02:24:24.599Z,25.20
2023-10-17T02:26:50.898Z,25.39
2023-10-17T02:29:17.403Z,25.56
2023-10-17T02:31:44.043Z,25.70
2023-10-17T02:34:10.309Z,25.78
2023-10-17T02:36:36.656Z,24.53
2023-10-17T02:39:03.109Z,24.04
2023-10-17T02:41:29.463Z,23.87
2023-10-17T02:43:55.857Z,23.84
2023-10-17T02:46:22.302Z,23.89
2023-10-17T02:48:48.799Z,24.05
2023-10-17T02:51:15.038Z,24.39
2023-10-17T02:53:41.347Z,23.81
2023-10-17T02:56:07.774Z,23.83
2023-10-17T02:58:34.306Z,23.82
2023-10-17T03:01:00.762Z,23.81
2023-10-17T03:03:27.297Z,23.82
2023-10-17T03:05:55.006Z,23.81
2023-10-17T03:08:19.941Z,23.79
2023-10-17T03:10:48.303Z,23.79
2023-10-17T03:13:12.718Z,23.86
2023-10-17T03:15:39.318Z,23.83
2023-10-17T03:18:05.698Z,23.81
2023-10-17T03:20:32.079Z,23.81
2023-10-17T03:22:58.488Z,23.80
2023-10-17T03:25:24.775Z,23.75
2023-10-17T03:27:51.121Z,23.74
2023-10-17T03:30:17.535Z,23.73
2023-10-17T03:32:43.866Z,23.73
2023-10-17T03:35:10.290Z,23.73
2023-10-17T03:37:36.680Z,23.72
2023-10-17T03:40:02.950Z,23.74
2023-10-17T03:42:29.270Z,23.71
2023-10-17T03:44:55.684Z,23.73
2023-10-17T03:47:22.019Z,24.02
2023-10-17T03:49:48.493Z,24.33
2023-10-17T03:52:14.907Z,24.30
2023-10-17T03:54:41.206Z,24.58
2023-10-17T03:57:07.501Z,24.81
2023-10-17T03:59:33.976Z,24.99
2023-10-17T04:02:00.343Z,25.21
2023-10-17T04:04:27.904Z,25.40
2023-10-17T04:06:54.955Z,25.48
2023-10-17T04:09:19.556Z,25.42
2023-10-17T04:11:45.865Z,25.59
2023-10-17T04:14:12.301Z,25.64
2023-10-17T04:16:38.640Z,25.71
2023-10-17T04:19:05.160Z,25.74
2023-10-17T04:21:31.406Z,25.70
2023-10-17T04:23:57.691Z,25.75
2023-10-17T04:26:24.016Z,25.78
2023-10-17T04:28:50.346Z,25.74
2023-10-17T04:31:16.867Z,25.76
2023-10-17T04:33:43.262Z,24.50
2023-10-17T04:36:09.548Z,23.85
2023-10-17T04:38:35.778Z,23.76
2023-10-17T04:41:02.134Z,23.78
2023-10-17T04:43:28.530Z,23.78
2023-10-17T04:45:54.828Z,23.75
2023-10-17T04:48:21.158Z,23.81
2023-10-17T04:50:47.560Z,24.06
2023-10-17T04:53:13.910Z,24.40
2023-10-17T04:55:40.234Z,24.85
2023-10-17T04:58:06.655Z,25.17
2023-10-17T05:00:33.040Z,25.38
2023-10-17T05:02:59.353Z,25.58
2023-10-17T05:05:25.628Z,25.80
2023-10-17T05:07:51.969Z,25.26
2023-10-17T05:10:18.271Z,25.58
2023-10-17T05:12:44.665Z,25.91
2023-10-17T05:15:10.972Z,26.20
2023-10-17T05:17:37.526Z,26.30
2023-10-17T05:20:03.725Z,26.26
2023-10-17T05:22:30.023Z,24.50
2023-10-17T05:24:56.368Z,24.25
2023-10-17T05:27:22.719Z,24.29
2023-10-17T05:29:49.035Z,24.38
2023-10-17T05:32:15.351Z,24.38
2023-10-17T05:34:41.734Z,24.38
2023-10-17T05:37:08.059Z,24.44
2023-10-17T05:39:34.419Z,24.44
2023-10-17T05:42:00.818Z,24.55
2023-10-17T05:44:27.412Z,24.55
2023-10-17T05:46:53.482Z,24.72
2023-10-17T05:49:19.795Z,24.86
2023-10-17T05:51:46.145Z,24.98
2023-10-17T05:54:40.676Z,24.95
2023-10-17T05:56:38.887Z,24.65
2023-10-17T05:59:05.280Z,24.49
2023-10-17T06:01:31.631Z,24.71
2023-10-17T06:03:58.054Z,24.78
2023-10-17T06:06:31.889Z,25.22
2023-10-17T06:08:50.511Z,25.45
2023-10-17T06:11:16.901Z,26.29
2023-10-17T06:13:43.262Z,26.70
2023-10-17T06:16:09.725Z,26.60
2023-10-17T06:18:36.115Z,26.73
2023-10-17T06:21:02.618Z,25.83
2023-10-17T06:23:29.160Z,25.18
2023-10-17T06:25:55.512Z,26.15
2023-10-17T06:28:21.953Z,24.70
2023-10-17T06:30:48.293Z,24.63
2023-10-17T06:33:14.804Z,24.62
2023-10-17T06:35:41.134Z,24.97
2023-10-17T06:38:07.566Z,25.89
2023-10-17T06:40:34.003Z,26.58
2023-10-17T06:43:00.338Z,26.81
2023-10-17T06:45:26.796Z,26.99
2023-10-17T06:47:53.248Z,27.04
2023-10-17T06:50:19.629Z,27.18
2023-10-17T06:52:46.058Z,27.16
2023-10-17T06:55:12.494Z,26.95
2023-10-17T06:57:39.006Z,26.93
2023-10-17T07:00:05.405Z,26.89
2023-10-17T07:02:31.870Z,26.91
2023-10-17T07:04:58.252Z,27.02
2023-10-17T07:07:24.557Z,27.01
2023-10-17T07:09:50.943Z,26.98
2023-10-17T07:12:17.384Z,27.08
2023-10-17T07:14:43.662Z,27.05
2023-10-17T07:17:09.973Z,27.04
2023-10-17T07:19:36.366Z,27.04
2023-10-17T07:22:02.965Z,27.06
2023-10-17T07:24:29.165Z,27.12
2023-10-17T07:26:55.490Z,27.18
2023-10-17T07:29:21.779Z,27.29
2023-10-17T07:31:48.107Z,27.22
2023-10-17T07:34:14.443Z,27.18
2023-10-17T07:36:41.011Z,27.29
2023-10-17T07:39:07.403Z,27.36
2023-10-17T07:41:33.812Z,27.38
2023-10-17T07:44:00.120Z,27.43
2023-10-17T07:46:26.532Z,27.43
2023-10-17T07:48:52.990Z,27.51
2023-10-17T07:51:19.273Z,27.63
2023-10-17T07:53:45.738Z,27.61
2023-10-17T07:56:11.975Z,27.41
2023-10-17T07:58:38.313Z,27.39
2023-10-17T08:01:04.705Z,27.59
2023-10-17T08:03:31.076Z,27.61
2023-10-17T08:05:57.436Z,27.72
2023-10-17T08:08:23.792Z,27.55
2023-10-17T08:10:50.183Z,27.67
2023-10-17T08:13:16.616Z,27.59
2023-10-17T08:15:42.994Z,27.60
2023-10-17T08:18:09.397Z,27.74
2023-10-17T08:20:35.741Z,27.59
2023-10-17T08:23:02.222Z,27.76
2023-10-17T08:25:28.475Z,27.79
2023-10-17T08:27:55.050Z,27.74
2023-10-17T08:30:33.692Z,27.78
2023-10-17T08:32:47.813Z,27.70
2023-10-17T08:35:14.217Z,26.31
2023-10-17T08:37:40.552Z,26.81
2023-10-17T08:40:06.979Z,27.45
2023-10-17T08:42:33.348Z,27.53
2023-10-17T08:44:59.613Z,27.58
2023-10-17T08:47:26.187Z,27.61
2023-10-17T08:49:52.287Z,27.58
2023-10-17T08:52:18.611Z,27.68
2023-10-17T08:54:44.969Z,27.72
2023-10-17T08:57:11.304Z,27.71
2023-10-17T08:59:37.626Z,27.76
2023-10-17T09:02:03.973Z,27.74
2023-10-17T09:04:30.528Z,27.78
2023-10-17T09:06:56.722Z,27.91
2023-10-17T09:09:23.312Z,27.82
2023-10-17T09:11:51.045Z,27.98
2023-10-17T09:14:15.846Z,27.90
2023-10-17T09:16:42.280Z,27.95
2023-10-17T09:19:08.552Z,27.70
2023-10-17T09:21:35.093Z,27.73
2023-10-17T09:24:01.413Z,27.89
2023-10-17T09:26:27.751Z,27.79
2023-10-17T09:28:54.128Z,25.66
2023-10-17T09:31:20.522Z,25.68
2023-10-17T09:33:46.865Z,25.54
2023-10-17T09:36:13.167Z,25.65
2023-10-17T09:38:39.454Z,25.72
2023-10-17T09:41:17.748Z,25.78
2023-10-17T09:43:32.113Z,25.78
2023-10-17T09:45:58.518Z,25.65
2023-10-17T09:48:25.049Z,26.77
2023-10-17T09:50:51.121Z,27.66
2023-10-17T09:53:18.998Z,27.92
2023-10-17T09:55:44.606Z,27.77
2023-10-17T09:58:10.906Z,27.87
2023-10-17T10:00:37.252Z,27.91
2023-10-17T10:03:14.496Z,27.94
2023-10-17T10:05:29.933Z,25.98
2023-10-17T10:07:56.188Z,25.91
2023-10-17T10:10:22.535Z,25.91
2023-10-17T10:12:48.939Z,25.89
2023-10-17T10:15:15.207Z,27.08
2023-10-17T10:17:41.629Z,26.09
2023-10-17T10:20:07.908Z,25.80
2023-10-17T10:22:34.328Z,26.24
2023-10-17T10:25:00.713Z,27.28
2023-10-17T10:27:27.092Z,27.59
2023-10-17T10:29:53.607Z,27.83
2023-10-17T10:32:19.787Z,27.79
2023-10-17T10:34:46.518Z,27.79
2023-10-17T10:37:13.504Z,27.87
2023-10-17T10:39:40.155Z,27.93
2023-10-17T10:42:06.710Z,27.89
2023-10-17T10:44:33.445Z,28.19
2023-10-17T10:47:00.713Z,28.08
2023-10-17T10:49:27.685Z,27.39
2023-10-17T10:51:53.792Z,25.80
2023-10-17T10:54:20.185Z,25.69
2023-10-17T10:56:46.539Z,25.76
2023-10-17T10:59:12.876Z,25.81
2023-10-17T11:01:39.397Z,25.85
2023-10-17T11:04:05.797Z,25.92
2023-10-17T11:06:32.210Z,26.32
2023-10-17T11:08:58.517Z,26.98
2023-10-17T11:11:24.954Z,27.38
2023-10-17T11:13:51.367Z,27.72
2023-10-17T11:16:17.874Z,27.76
2023-10-17T11:18:44.194Z,25.97
2023-10-17T11:21:10.528Z,25.96
2023-10-17T11:23:36.896Z,25.85
2023-10-17T11:26:13.057Z,25.55
2023-10-17T11:28:29.588Z,25.81
2023-10-17T11:30:56.046Z,25.79
2023-10-17T11:33:22.337Z,25.81
2023-10-17T11:35:48.774Z,25.76
2023-10-17T11:38:15.200Z,25.76
2023-10-17T11:40:41.629Z,25.78
2023-10-17T11:43:07.953Z,25.85
2023-10-17T11:45:35.389Z,25.74
2023-10-17T11:48:00.814Z,25.74
2023-10-17T11:50:27.196Z,25.79
2023-10-17T11:52:53.514Z,25.82
2023-10-17T11:55:19.904Z,25.88
2023-10-17T11:57:46.513Z,26.00
2023-10-17T12:00:12.864Z,26.04
2023-10-17T12:02:39.180Z,26.12
2023-10-17T12:05:05.579Z,26.01
2023-10-17T12:07:31.903Z,26.06
2023-10-17T12:09:58.344Z,26.05
2023-10-17T12:12:25.834Z,26.03
2023-10-17T12:14:51.190Z,26.05
2023-10-17T12:17:17.515Z,26.14
2023-10-17T12:19:43.982Z,26.06
2023-10-17T12:22:10.393Z,26.03
2023-10-17T12:24:36.971Z,26.14
2023-10-17T12:27:03.188Z,26.85
2023-10-17T12:29:29.492Z,27.66
2023-10-17T12:31:55.825Z,27.91
2023-10-17T12:34:22.273Z,27.98
2023-10-17T12:36:48.835Z,27.36
2023-10-17T12:39:16.254Z,26.48
2023-10-17T12:41:45.310Z,26.24
2023-10-17T12:44:11.641Z,26.17
2023-10-17T12:46:38.028Z,26.38
2023-10-17T12:49:04.327Z,26.35
2023-10-17T12:51:30.831Z,25.96
2023-10-17T12:53:57.074Z,26.10
2023-10-17T12:56:23.444Z,26.18
2023-10-17T12:58:49.751Z,26.14
2023-10-17T13:01:16.131Z,26.17
2023-10-17T13:03:42.757Z,26.10
2023-10-17T13:06:08.834Z,26.01
2023-10-17T13:08:35.188Z,26.27
2023-10-17T13:11:03.258Z,27.37
2023-10-17T13:13:27.960Z,27.80
2023-10-17T13:15:54.442Z,26.14
2023-10-17T13:18:20.785Z,26.24
2023-10-17T13:21:10.370Z,26.94
2023-10-17T13:23:13.418Z,27.51
2023-10-17T13:25:39.765Z,27.74
2023-10-17T13:28:06.141Z,27.80
2023-10-17T13:30:32.653Z,27.11
2023-10-17T13:32:58.969Z,27.59
2023-10-17T13:35:25.270Z,27.83
2023-10-17T13:37:51.674Z,27.83
2023-10-17T13:40:18.112Z,27.82
2023-10-17T13:42:44.582Z,27.80
2023-10-17T13:45:10.795Z,27.79
2023-10-17T13:47:37.167Z,27.82
2023-10-17T13:50:03.498Z,27.83
2023-10-17T13:52:29.979Z,27.69
2023-10-17T13:54:56.429Z,27.70
2023-10-17T13:57:22.818Z,27.73
2023-10-17T13:59:49.281Z,27.72
2023-10-17T14:02:15.433Z,27.35
2023-10-17T14:04:41.833Z,27.63
2023-10-17T14:07:08.200Z,27.69
2023-10-17T14:09:34.625Z,27.66
2023-10-17T14:12:01.029Z,27.61
2023-10-17T14:14:27.349Z,27.62
2023-10-17T14:16:53.812Z,27.55
2023-10-17T14:19:20.226Z,27.55
2023-10-17T14:21:46.664Z,27.59
2023-10-17T14:24:12.954Z,27.58
2023-10-17T14:26:39.338Z,27.57
2023-10-17T14:29:05.625Z,27.54
2023-10-17T14:31:32.085Z,27.52
2023-10-17T14:33:58.363Z,27.52
2023-10-17T14:36:24.818Z,27.50
2023-10-17T14:38:51.174Z,27.48
2023-10-17T14:41:17.528Z,27.50
2023-10-17T14:43:43.856Z,27.52
2023-10-17T14:46:10.276Z,27.46
2023-10-17T14:48:36.630Z,27.43
2023-10-17T14:51:03.154Z,27.44
2023-10-17T14:53:43.226Z,27.43
2023-10-17T14:55:55.824Z,27.41
2023-10-17T14:58:22.169Z,27.44
2023-10-17T15:00:48.770Z,27.40
2023-10-17T15:03:15.167Z,27.39
2023-10-17T15:05:41.538Z,27.43
2023-10-17T15:08:07.980Z,27.41
2023-10-17T15:10:34.335Z,27.37
2023-10-17T15:13:00.829Z,27.38
2023-10-17T15:15:27.084Z,27.35
2023-10-17T15:17:53.566Z,27.35
2023-10-17T15:20:20.027Z,27.32
2023-10-17T15:22:46.284Z,27.29
2023-10-17T15:25:12.691Z,27.29
2023-10-17T15:27:40.438Z,27.26
2023-10-17T15:30:07.283Z,27.25
2023-10-17T15:32:31.706Z,27.25
2023-10-17T15:34:58.026Z,27.23
2023-10-17T15:37:24.328Z,27.26
2023-10-17T15:39:50.772Z,27.27
2023-10-17T15:42:17.115Z,27.24
2023-10-17T15:44:43.398Z,27.21
2023-10-17T15:47:09.798Z,27.20
2023-10-17T15:49:36.103Z,27.21
2023-10-17T15:52:02.548Z,27.20
2023-10-17T15:54:29.728Z,27.19
2023-10-17T15:56:56.014Z,27.11
2023-10-17T15:59:22.345Z,27.14
2023-10-17T16:01:49.138Z,27.10
2023-10-17T16:04:15.546Z,27.07
2023-10-17T16:06:42.708Z,27.10
2023-10-17T16:09:08.187Z,27.07
2023-10-17T16:11:34.575Z,27.05
2023-10-17T16:14:00.937Z,27.08
2023-10-17T16:16:27.303Z,27.05
2023-10-17T16:18:53.778Z,27.01
2023-10-17T16:21:20.027Z,27.03
2023-10-17T16:23:46.265Z,26.99
2023-10-17T16:26:12.701Z,26.98
2023-10-17T16:28:39.040Z,26.97
2023-10-17T16:31:05.569Z,26.98
2023-10-17T16:33:31.812Z,26.97
2023-10-17T16:35:58.136Z,26.94
2023-10-17T16:38:24.555Z,26.94
2023-10-17T16:40:50.974Z,26.93
2023-10-17T16:43:17.280Z,26.94
2023-10-17T16:45:43.781Z,26.91
2023-10-17T16:48:10.118Z,26.92
2023-10-17T16:50:36.437Z,26.96
2023-10-17T16:53:02.870Z,26.90
2023-10-17T16:55:29.285Z,26.91
2023-10-17T16:57:55.739Z,26.90
2023-10-17T17:00:22.209Z,26.87
2023-10-17T17:02:48.647Z,26.83
2023-10-17T17:05:15.055Z,26.81
2023-10-17T17:07:41.455Z,26.81
2023-10-17T17:10:07.774Z,26.80
2023-10-17T17:12:34.204Z,26.78
2023-10-17T17:15:00.522Z,26.78
2023-10-17T17:17:26.932Z,26.74
2023-10-17T17:19:53.233Z,26.76
2023-10-17T17:22:19.636Z,26.72
2023-10-17T17:24:46.116Z,26.70
2023-10-17T17:27:12.419Z,26.71
2023-10-17T17:29:38.868Z,26.68
2023-10-17T17:32:05.280Z,26.65
2023-10-17T17:34:31.586Z,26.67
2023-10-17T17:36:57.991Z,26.67
2023-10-17T17:39:24.294Z,26.66
2023-10-17T17:41:50.586Z,26.63
2023-10-17T17:44:16.943Z,26.60
2023-10-17T17:46:43.415Z,26.57
2023-10-17T17:49:09.700Z,26.55
2023-10-17T17:51:36.045Z,26.51
2023-10-17T17:54:02.345Z,26.49
2023-10-17T17:56:28.669Z,26.49
2023-10-17T17:58:54.975Z,26.50
2023-10-17T18:01:21.358Z,26.49
2023-10-17T18:03:47.720Z,26.50
2023-10-17T18:06:14.068Z,26.48
2023-10-17T18:08:40.378Z,26.49
2023-10-17T18:11:06.771Z,26.50
2023-10-17T18:13:33.024Z,26.50
2023-10-17T18:15:59.399Z,26.54
2023-10-17T18:18:25.815Z,26.50
2023-10-17T18:20:52.827Z,26.54
2023-10-17T18:23:18.423Z,26.50
2023-10-17T18:25:44.789Z,26.45
2023-10-17T18:28:11.091Z,26.50
2023-10-17T18:30:37.502Z,26.51
2023-10-17T18:33:03.771Z,26.51
2023-10-17T18:35:30.183Z,26.53
2023-10-17T18:37:56.569Z,26.47
2023-10-17T18:40:22.954Z,26.49
2023-10-17T18:42:49.316Z,26.50
2023-10-17T18:45:16.777Z,26.47
2023-10-17T18:47:41.943Z,26.43
2023-10-17T18:50:08.274Z,26.43
2023-10-17T18:52:34.704Z,26.42
2023-10-17T18:57:27.589Z,26.44
2023-10-17T18:59:54.012Z,26.41
2023-10-17T19:02:20.416Z,26.40
2023-10-17T19:04:46.767Z,26.40
2023-10-17T19:07:13.268Z,26.36
2023-10-17T19:09:39.673Z,26.36
2023-10-17T19:12:05.932Z,26.31
2023-10-17T19:14:32.293Z,26.32
2023-10-17T19:16:58.676Z,26.37
2023-10-17T19:19:24.932Z,26.28
2023-10-17T19:21:51.306Z,26.28
2023-10-17T19:24:17.610Z,26.32
2023-10-17T19:26:43.926Z,26.27
2023-10-17T19:29:10.319Z,26.27
2023-10-17T19:31:36.657Z,26.26
2023-10-17T19:34:03.045Z,26.26
2023-10-17T19:36:29.433Z,26.27
2023-10-17T19:38:55.838Z,26.25
2023-10-17T19:41:22.179Z,26.24
2023-10-17T19:43:48.588Z,26.24
2023-10-17T19:46:15.117Z,26.22
2023-10-17T19:48:41.481Z,26.22
2023-10-17T19:51:07.800Z,26.24
2023-10-17T19:53:34.232Z,26.19
2023-10-17T19:56:00.652Z,26.21
2023-10-17T19:58:27.096Z,26.20
2023-10-17T20:00:53.408Z,26.21
2023-10-17T20:03:19.751Z,26.19
2023-10-17T20:05:46.036Z,26.17
2023-10-17T20:08:12.611Z,26.18
2023-10-17T20:10:38.731Z,26.21
2023-10-17T20:13:05.206Z,26.19
2023-10-17T20:15:31.631Z,26.17
2023-10-17T20:17:58.091Z,26.18
2023-10-17T20:20:24.357Z,26.18
2023-10-17T20:22:50.682Z,26.16
2023-10-17T20:25:16.997Z,26.15
2023-10-17T20:27:43.351Z,26.11
2023-10-17T20:30:09.673Z,26.16
2023-10-17T20:32:36.156Z,26.15
2023-10-17T20:35:02.384Z,26.13
2023-10-17T20:37:28.698Z,26.09
2023-10-17T20:39:55.054Z,26.07
2023-10-17T20:42:21.347Z,26.09
2023-10-17T20:44:47.671Z,26.05
2023-10-17T20:47:14.202Z,26.06
2023-10-17T20:49:40.421Z,26.05
2023-10-17T20:52:06.825Z,26.07
2023-10-17T20:54:33.144Z,26.09
2023-10-17T20:56:59.426Z,26.05
2023-10-17T20:59:25.739Z,26.07
2023-10-17T21:01:52.159Z,26.05
2023-10-17T21:04:18.688Z,26.03
2023-10-17T21:06:45.053Z,26.05
2023-10-17T21:09:11.414Z,26.04
2023-10-17T21:11:37.872Z,26.02
2023-10-17T21:14:04.280Z,26.02
2023-10-17T21:16:30.805Z,26.00
2023-10-17T21:18:57.186Z,25.99
2023-10-17T21:21:23.547Z,26.00
2023-10-17T21:23:49.913Z,26.03
2023-10-17T21:26:16.252Z,26.01
2023-10-17T21:28:42.568Z,26.00
2023-10-17T21:31:09.116Z,25.98
2023-10-17T21:33:35.398Z,25.98
2023-10-17T21:36:01.767Z,25.98
2023-10-17T21:38:28.130Z,25.96
2023-10-17T21:40:54.550Z,25.94
2023-10-17T21:43:22.896Z,25.98
2023-10-17T21:45:47.400Z,25.94
2023-10-17T21:48:13.731Z,24.54
2023-10-17T21:50:40.075Z,24.52
2023-10-17T21:53:08.084Z,25.51
2023-10-17T21:55:32.829Z,25.75
2023-10-17T21:57:59.292Z,25.86
2023-10-17T22:00:25.600Z,25.87
2023-10-17T22:02:52.092Z,25.88
2023-10-17T22:05:18.468Z,25.91
2023-10-17T22:07:44.892Z,25.89
2023-10-17T22:10:11.283Z,25.88
2023-10-17T22:12:37.691Z,25.87
2023-10-17T22:15:04.094Z,25.90
2023-10-17T22:17:30.474Z,25.89
2023-10-17T22:19:56.876Z,25.86
2023-10-17T22:22:23.288Z,25.89
2023-10-17T22:24:55.227Z,25.89
2023-10-17T22:27:18.725Z,25.87
2023-10-17T22:29:45.277Z,25.87
2023-10-17T22:32:11.584Z,25.87
2023-10-17T22:34:38.018Z,25.87
2023-10-17T22:37:04.482Z,25.83
2023-10-17T22:39:31.039Z,25.83
2023-10-17T22:41:57.324Z,25.83
2023-10-17T22:44:23.752Z,25.84
2023-10-17T22:46:50.237Z,25.81
2023-10-17T22:49:16.663Z,25.83
2023-10-17T22:51:43.156Z,25.82
2023-10-17T22:54:09.484Z,25.82
2023-10-17T22:56:35.918Z,25.81
2023-10-17T22:59:02.360Z,25.81
2023-10-17T23:01:28.863Z,25.81
2023-10-17T23:03:55.276Z,25.80
2023-10-17T23:06:21.655Z,25.80
2023-10-17T23:08:48.086Z,25.78
2023-10-17T23:11:14.524Z,25.76
2023-10-17T23:13:40.956Z,25.80
2023-10-17T23:16:07.411Z,25.78
2023-10-17T23:18:33.923Z,25.76
2023-10-17T23:21:00.264Z,25.79
2023-10-17T23:23:26.693Z,25.79
2023-10-17T23:25:53.125Z,25.78
2023-10-17T23:28:19.587Z,25.77
2023-10-17T23:30:46.002Z,25.75
2023-10-17T23:33:12.277Z,25.76
2023-10-17T23:35:38.648Z,25.76
2023-10-17T23:38:04.909Z,25.75
2023-10-17T23:40:31.396Z,25.74
2023-10-17T23:42:57.860Z,25.76
2023-10-17T23:45:24.310Z,25.73
2023-10-17T23:47:51.647Z,25.73
2023-10-17T23:50:17.812Z,25.72
2023-10-17T23:52:43.459Z,25.73
2023-10-17T23:55:09.848Z,25.73
2023-10-17T23:57:36.258Z,25.71
